Time;durP1;ratioP1;P1;durP2;ratioP2;P2;SDS_P1;SDS_P2;PMS_P1;PMS_P2;Temp;Humidity;BMP_temperature;BMP_pressure;BME280_temperature;BME280_humidity;BME280_pressure;Samples;Min_cycle;Max_cycle;Signal;HPM_P1;HPM_P2
2022/10/22 07:19:05;;;;;;;;;3.50;2.00;;;;;15.81;72.94;101230.00;2784698;23;46455;-85
2022/10/22 07:20:16;;;;;;;;;3.75;3.75;;;;;15.83;73.13;101229.94;2390813;28;46386;-84
2022/10/22 07:21:27;;;;;;;;;3.00;2.00;;;;;15.85;72.75;101234.22;2390698;28;45376;-83
2022/10/22 07:22:37;;;;;;;;;3.00;2.00;;;;;15.89;72.82;101234.94;2384997;28;47077;-84
2022/10/22 07:23:48;;;;;;;;;2.75;2.00;;;;;15.92;72.91;101240.13;2389787;28;45487;-84
2022/10/22 07:24:58;;;;;;;;;3.50;3.50;;;;;15.94;73.00;101246.19;2394146;28;45485;-84
2022/10/22 07:26:11;;;;;;;;;2.00;2.00;;;;;15.94;72.65;101237.38;2394231;28;45366;-86
2022/10/22 07:27:22;;;;;;;;;2.25;2.00;;;;;15.95;72.83;101232.00;2394283;28;45207;-84
2022/10/22 07:28:38;;;;;;;;;2.00;2.00;;;;;15.96;72.44;101241.69;2388459;28;45375;-84
2022/10/22 07:29:48;;;;;;;;;3.00;2.50;;;;;15.97;72.60;101240.75;2393289;28;47595;-85
2022/10/22 07:30:59;;;;;;;;;2.25;2.00;;;;;15.98;72.67;101237.16;2392237;28;45461;-87
2022/10/22 07:32:10;;;;;;;;;1.75;1.75;;;;;16.01;72.48;101237.94;2390174;28;48311;-88
2022/10/22 07:33:20;;;;;;;;;2.50;2.00;;;;;16.01;72.52;101237.94;2388744;28;45421;-87
2022/10/22 07:34:30;;;;;;;;;1.75;1.75;;;;;16.02;72.69;101244.97;2393997;28;46461;-85
2022/10/22 07:35:41;;;;;;;;;5.00;2.75;;;;;16.04;72.70;101246.66;2393065;28;44934;-84
2022/10/22 07:36:51;;;;;;;;;4.50;2.25;;;;;16.05;72.70;101240.41;2389980;28;45452;-82
2022/10/22 07:38:02;;;;;;;;;5.25;3.00;;;;;16.05;72.41;101244.88;2393756;28;45385;-83
2022/10/22 07:39:12;;;;;;;;;4.25;4.00;;;;;16.07;72.62;101243.00;2394166;28;45164;-84
2022/10/22 07:40:23;;;;;;;;;3.00;3.00;;;;;16.08;72.64;101244.69;2394363;28;45290;-84
2022/10/22 07:41:33;;;;;;;;;6.25;5.00;;;;;16.09;72.52;101246.44;2394116;28;45622;-84
2022/10/22 07:42:43;;;;;;;;;7.00;4.00;;;;;16.10;72.27;101237.53;2394253;28;44557;-83
2022/10/22 07:43:55;;;;;;;;;6.25;4.00;;;;;16.13;72.44;101241.81;2393773;28;45155;-84
2022/10/22 07:45:06;;;;;;;;;6.25;4.75;;;;;16.13;72.52;101245.34;2393297;28;45436;-87
2022/10/22 07:46:16;;;;;;;;;4.50;4.00;;;;;16.15;72.61;101242.63;2393945;28;46202;-84
2022/10/22 07:47:27;;;;;;;;;5.00;4.00;;;;;16.16;72.36;101250.50;2391624;28;45576;-84
2022/10/22 07:48:38;;;;;;;;;3.00;3.00;;;;;16.16;72.25;101245.19;2390008;28;45311;-85
2022/10/22 07:49:48;;;;;;;;;6.25;4.75;;;;;16.17;72.54;101246.06;2387771;28;45428;-83
2022/10/22 07:50:58;;;;;;;;;5.25;3.50;;;;;16.18;72.32;101250.41;2376963;28;46933;-83
2022/10/22 07:52:09;;;;;;;;;3.00;3.00;;;;;16.19;72.29;101255.66;2389263;28;45323;-84
2022/10/22 07:53:22;;;;;;;;;3.00;3.00;;;;;16.19;72.38;101255.66;2389836;28;47132;-84
2022/10/22 07:54:33;;;;;;;;;3.00;3.00;;;;;16.23;72.58;101255.50;2377789;28;45206;-84
2022/10/22 07:55:46;;;;;;;;;3.75;3.75;;;;;16.21;72.60;101252.91;2389106;28;45337;-84
2022/10/22 07:56:56;;;;;;;;;6.50;4.25;;;;;16.21;72.21;101255.56;2394161;28;44611;-85
2022/10/22 07:58:07;;;;;;;;;8.25;6.25;;;;;16.22;72.42;101251.13;2394137;28;46583;-85
2022/10/22 07:59:17;;;;;;;;;7.50;4.00;;;;;16.22;72.44;101256.44;2393412;28;45333;-84
2022/10/22 08:00:27;;;;;;;;;4.75;4.75;;;;;16.20;72.65;101257.34;2389384;28;46204;-85
2022/10/22 08:01:38;;;;;;;;;7.50;4.00;;;;;16.22;72.36;101252.00;2390250;28;45233;-85
2022/10/22 08:02:48;;;;;;;;;4.50;3.00;;;;;16.23;72.80;101260.78;2380641;28;47796;-84
2022/10/22 08:03:58;;;;;;;;;4.00;4.00;;;;;16.22;72.53;101261.75;2386627;28;45514;-84
2022/10/22 08:05:09;;;;;;;;;4.75;4.75;;;;;16.24;72.33;101262.53;2393716;28;47946;-85
2022/10/22 08:06:19;;;;;;;;;3.75;3.50;;;;;16.24;72.45;101257.22;2394079;28;45423;-84
2022/10/22 08:07:29;;;;;;;;;5.00;5.00;;;;;16.24;72.38;101267.81;2384032;28;47036;-84
2022/10/22 08:08:42;;;;;;;;;6.00;4.50;;;;;16.24;72.45;101262.53;2393069;28;44692;-84
2022/10/22 08:09:52;;;;;;;;;6.75;3.50;;;;;16.26;72.37;101265.94;2400104;28;45271;-84
2022/10/22 08:11:03;;;;;;;;;3.25;3.00;;;;;16.27;72.13;101268.53;2403044;28;45310;-84
2022/10/22 08:12:13;;;;;;;;;2.25;2.25;;;;;16.27;72.38;101265.03;2401052;28;45564;-84
2022/10/22 08:13:25;;;;;;;;;3.75;3.25;;;;;16.28;72.57;101269.38;2393910;28;45279;-84
2022/10/22 08:14:35;;;;;;;;;2.25;2.25;;;;;16.29;72.17;101269.34;2383712;28;46576;-84
2022/10/22 08:15:45;;;;;;;;;5.00;3.25;;;;;16.33;72.54;101272.69;2377250;28;45258;-85
2022/10/22 08:16:56;;;;;;;;;6.75;3.00;;;;;16.36;72.46;101274.31;2386714;28;46322;-85
2022/10/22 08:18:06;;;;;;;;;6.75;2.25;;;;;16.36;72.47;101271.66;2384079;28;45637;-84
2022/10/22 08:19:19;;;;;;;;;5.00;3.00;;;;;16.36;72.48;101269.88;2385719;28;45694;-84
2022/10/22 08:20:30;;;;;;;;;3.50;3.00;;;;;16.40;72.35;101270.56;2395195;28;45297;-84
2022/10/22 08:21:40;;;;;;;;;3.00;3.00;;;;;16.41;72.25;101270.50;2403340;28;45342;-85
2022/10/22 08:22:54;;;;;;;;;3.50;2.75;;;;;16.46;72.33;101270.28;2403364;28;44587;-84
2022/10/22 08:24:05;;;;;;;;;3.75;2.75;;;;;16.47;72.31;101274.63;2403184;28;48099;-85
2022/10/22 08:25:17;;;;;;;;;3.00;2.00;;;;;16.50;72.17;101274.50;2403479;28;45167;-84
2022/10/22 08:26:27;;;;;;;;;5.00;2.75;;;;;16.51;72.37;101278.00;2403347;28;45513;-85
2022/10/22 08:27:38;;;;;;;;;4.00;3.00;;;;;16.54;71.81;101277.88;2402484;28;45268;-85
2022/10/22 08:28:48;;;;;;;;;6.75;5.00;;;;;16.54;71.99;101270.75;2402504;28;45331;-85
2022/10/22 08:29:58;;;;;;;;;3.75;3.75;;;;;16.56;71.98;101276.00;2402645;28;45665;-84
2022/10/22 08:31:09;;;;;;;;;5.25;4.25;;;;;16.59;71.94;101277.63;2399515;28;46862;-85
2022/10/22 08:32:20;;;;;;;;;4.00;4.00;;;;;16.61;71.67;101262.50;2403268;28;45162;-85
2022/10/22 08:33:30;;;;;;;;;5.50;3.00;;;;;16.63;71.76;101266.78;2403134;28;45351;-85
2022/10/22 08:34:40;;;;;;;;;5.25;3.50;;;;;16.63;72.05;101263.28;2402619;28;45167;-85
2022/10/22 08:35:51;;;;;;;;;5.50;4.00;;;;;16.67;71.93;101261.34;2394767;28;46796;-85
2022/10/22 08:37:01;;;;;;;;;4.25;3.00;;;;;16.68;71.77;101258.59;2392804;28;44791;-85
2022/10/22 08:38:12;;;;;;;;;2.25;2.00;;;;;16.70;71.66;101263.81;2403083;28;45522;-84
2022/10/22 08:39:22;;;;;;;;;4.50;2.75;;;;;16.72;71.61;101259.28;2403378;28;45262;-84
2022/10/22 08:40:38;;;;;;;;;3.00;3.00;;;;;16.74;71.51;101260.09;2392936;28;47567;-85
2022/10/22 08:42:13;;;;;;;;;4.00;4.00;;;;;16.78;71.78;101266.94;2396407;28;44819;-84
2022/10/22 08:44:08;;;;;;;;;5.00;2.00;;;;;16.79;71.62;101268.63;2402332;28;46764;-84
2022/10/22 08:45:58;;;;;;;;;4.25;2.25;;;;;16.82;71.49;101270.28;2373790;28;45807;-85
2022/10/22 08:47:27;;;;;;;;;3.00;3.00;;;;;16.83;71.68;101267.56;2354614;29;47131;-84
2022/10/22 08:48:46;;;;;;;;;5.00;4.00;;;;;16.85;71.94;101263.03;2361868;28;45334;-85
2022/10/22 08:49:59;;;;;;;;;3.50;2.00;;;;;16.87;71.61;101273.56;2373175;28;46055;-84
2022/10/22 08:51:16;;;;;;;;;5.75;3.00;;;;;16.90;71.10;101264.59;2379889;28;45500;-84
2022/10/22 08:52:27;;;;;;;;;6.00;4.25;;;;;16.92;71.34;101270.66;2387618;28;48306;-82
2022/10/22 08:53:46;;;;;;;;;4.75;3.25;;;;;16.93;71.35;101270.59;2399910;28;45143;-83
2022/10/22 08:55:01;;;;;;;;;3.25;2.50;;;;;16.95;71.48;101271.38;2400267;28;45344;-83
2022/10/22 08:56:14;;;;;;;;;5.75;4.25;;;;;16.99;71.46;101277.38;2401630;28;45281;-82
2022/10/22 08:57:53;;;;;;;;;3.50;3.50;;;;;17.02;71.22;101269.25;2402497;28;45303;-83
2022/10/22 08:59:28;;;;;;;;;6.00;4.25;;;;;17.03;71.01;101271.00;2371079;28;45305;-84
2022/10/22 09:01:01;;;;;;;;;4.00;4.00;;;;;17.09;71.27;101278.63;2396552;28;48248;-84
2022/10/22 09:02:50;;;;;;;;;3.25;3.25;;;;;17.13;71.03;101271.38;2399157;28;46329;-84
2022/10/22 09:04:24;;;;;;;;;6.75;3.50;;;;;17.15;71.06;101272.19;2372771;28;45512;-84
2022/10/22 09:06:02;;;;;;;;;4.25;3.50;;;;;17.19;71.16;101272.84;2395766;28;45278;-85
2022/10/22 09:07:12;;;;;;;;;4.50;3.75;;;;;17.19;70.94;101278.16;2388997;28;47238;-85
2022/10/22 09:08:23;;;;;;;;;3.00;3.00;;;;;17.22;71.40;101280.66;2395121;28;45478;-84
2022/10/22 09:09:41;;;;;;;;;3.00;3.00;;;;;17.24;71.26;101277.91;2402481;28;45334;-84
2022/10/22 09:11:02;;;;;;;;;5.00;3.75;;;;;17.26;71.28;101279.56;2400520;28;45306;-83
2022/10/22 09:12:16;;;;;;;;;4.00;4.00;;;;;17.30;71.29;101281.13;2402780;28;45316;-83
2022/10/22 09:13:27;;;;;;;;;6.75;5.00;;;;;17.36;71.16;101281.75;2400926;28;45689;-83
2022/10/22 09:14:38;;;;;;;;;5.75;4.00;;;;;17.35;70.87;101286.19;2401187;28;46333;-83
2022/10/22 09:15:54;;;;;;;;;3.00;3.00;;;;;17.38;70.54;101277.22;2402507;28;45178;-83
2022/10/22 09:17:28;;;;;;;;;2.75;2.75;;;;;17.41;70.74;101279.69;2402704;28;46302;-83
2022/10/22 09:18:44;;;;;;;;;5.75;4.00;;;;;17.43;70.78;101281.31;2402957;28;44729;-83
2022/10/22 09:20:25;;;;;;;;;4.50;3.50;;;;;17.48;70.04;101278.41;2401894;28;45477;-83
2022/10/22 09:22:02;;;;;;;;;2.50;2.50;;;;;17.47;69.92;101282.03;2393679;28;45258;-83
2022/10/22 09:23:32;;;;;;;;;5.75;4.50;;;;;17.50;70.44;101281.88;2402245;28;46364;-83
2022/10/22 09:24:48;;;;;;;;;3.50;2.25;;;;;17.50;69.91;101275.69;2401766;28;45175;-83
2022/10/22 09:25:59;;;;;;;;;3.50;2.25;;;;;17.52;69.95;101279.97;2402112;28;45539;-83
2022/10/22 09:27:19;;;;;;;;;3.25;3.00;;;;;17.55;70.01;101286.94;2404329;28;45240;-83
2022/10/22 09:28:29;;;;;;;;;4.75;2.00;;;;;17.56;70.14;101285.13;2397016;28;46545;-83
2022/10/22 09:29:40;;;;;;;;;2.00;2.00;;;;;17.57;70.54;101282.38;2407297;28;45296;-83
2022/10/22 09:30:51;;;;;;;;;2.50;2.50;;;;;17.59;70.48;101279.63;2402891;28;46388;-83
2022/10/22 09:32:01;;;;;;;;;6.00;3.75;;;;;17.60;70.33;101279.56;2402082;28;45495;-83
2022/10/22 09:33:22;;;;;;;;;5.00;3.00;;;;;17.63;70.06;101273.22;2402515;28;45496;-83
2022/10/22 09:34:32;;;;;;;;;4.00;2.00;;;;;17.65;70.05;101277.53;2404423;28;45145;-83
2022/10/22 09:36:02;;;;;;;;;4.25;3.00;;;;;17.66;70.05;101278.34;2398957;28;45246;-82
2022/10/22 09:37:16;;;;;;;;;1.00;1.00;;;;;17.70;70.51;101279.06;2401638;28;45232;-82
2022/10/22 09:38:30;;;;;;;;;6.00;3.00;;;;;17.70;70.01;101274.63;2400246;28;45519;-82
2022/10/22 09:39:45;;;;;;;;;3.75;2.00;;;;;17.72;70.20;101278.03;2401285;28;45459;-83
2022/10/22 09:40:57;;;;;;;;;3.00;1.50;;;;;17.72;70.40;101272.72;2398436;28;45482;-82
2022/10/22 09:42:16;;;;;;;;;4.50;2.50;;;;;17.75;69.47;101277.00;2402305;28;45423;-82
2022/10/22 09:43:26;;;;;;;;;2.75;2.75;;;;;17.77;70.00;101277.78;2402185;28;45259;-82
2022/10/22 09:44:37;;;;;;;;;2.25;2.25;;;;;17.81;70.10;101283.78;2394973;28;45251;-84
2022/10/22 09:45:56;;;;;;;;;3.00;3.00;;;;;17.83;70.23;101281.91;2392554;28;47549;-83
2022/10/22 09:47:27;;;;;;;;;2.00;2.00;;;;;17.83;70.10;101271.28;2396572;28;45249;-80
2022/10/22 09:48:41;;;;;;;;;8.50;8.50;;;;;17.83;70.70;101279.25;2402151;28;45610;-81
2022/10/22 09:50:24;;;;;;;;;11.75;10.50;;;;;17.80;70.40;101272.31;2403750;28;44743;-82
2022/10/22 09:51:54;;;;;;;;;4.00;3.25;;;;;17.92;70.33;101276.06;2393122;28;47516;-82
2022/10/22 09:53:13;;;;;;;;;5.50;4.00;;;;;18.03;70.05;101278.13;2399807;28;45585;-82
2022/10/22 09:54:31;;;;;;;;;3.00;3.00;;;;;18.09;69.71;101268.94;2384913;28;47261;-82
2022/10/22 09:55:42;;;;;;;;;5.00;2.00;;;;;18.11;69.71;101264.38;2395910;28;45481;-82
2022/10/22 09:57:01;;;;;;;;;4.25;2.00;;;;;18.17;69.36;101274.69;2400643;28;46889;-83
2022/10/22 09:58:13;;;;;;;;;4.00;2.25;;;;;18.18;69.23;101275.53;2403157;28;45516;-83
2022/10/22 09:59:35;;;;;;;;;2.00;2.00;;;;;18.18;69.67;101271.06;2394095;28;47050;-82
2022/10/22 10:00:51;;;;;;;;;4.25;4.00;;;;;18.23;68.95;101276.16;2395077;28;45221;-82
2022/10/22 10:02:07;;;;;;;;;2.75;2.00;;;;;18.24;68.94;101280.56;2404510;28;45420;-82
2022/10/22 10:03:21;;;;;;;;;2.00;2.00;;;;;18.27;69.23;101274.19;2404361;28;45233;-82
2022/10/22 10:04:40;;;;;;;;;4.00;3.00;;;;;18.28;69.33;101274.09;2393094;28;47285;-83
2022/10/22 10:05:54;;;;;;;;;2.25;2.25;;;;;18.30;69.36;101269.53;2387367;28;45539;-83
2022/10/22 10:07:15;;;;;;;;;3.00;3.00;;;;;18.36;69.37;101275.47;2386350;28;48214;-82
2022/10/22 10:08:25;;;;;;;;;2.25;2.25;;;;;18.36;69.33;101268.34;2398546;28;45187;-82
2022/10/22 10:09:36;;;;;;;;;4.25;2.50;;;;;18.38;69.14;101274.44;2394076;28;47539;-82
2022/10/22 10:10:50;;;;;;;;;5.00;3.00;;;;;18.39;68.96;101273.50;2397147;28;45192;-82
2022/10/22 10:12:00;;;;;;;;;3.00;3.00;;;;;18.43;69.05;101277.69;2404136;28;45428;-82
2022/10/22 10:13:37;;;;;;;;;2.25;1.75;;;;;18.43;69.05;101268.84;2404207;28;45282;-82
2022/10/22 10:15:01;;;;;;;;;4.00;3.00;;;;;18.44;69.18;101271.44;2393702;28;46198;-82
2022/10/22 10:16:24;;;;;;;;;4.25;2.00;;;;;18.47;69.41;101274.84;2396981;28;44669;-82
2022/10/22 10:17:53;;;;;;;;;2.50;1.25;;;;;18.47;69.03;101266.88;2396442;28;47289;-82
2022/10/22 10:19:46;;;;;;;;;6.50;3.75;;;;;18.51;68.99;101279.03;2398212;28;45242;-82
2022/10/22 10:21:02;;;;;;;;;3.00;3.00;;;;;18.53;68.90;101274.47;2359564;29;46784;-82
2022/10/22 10:22:21;;;;;;;;;6.75;4.00;;;;;18.57;68.79;101272.50;2364271;28;45372;-82
2022/10/22 10:24:05;;;;;;;;;4.50;4.00;;;;;18.59;68.60;101279.47;2390601;28;45494;-82
2022/10/22 10:25:30;;;;;;;;;4.50;3.00;;;;;18.61;68.63;101277.56;2394925;28;45179;-82
2022/10/22 10:27:08;;;;;;;;;5.75;3.25;;;;;18.65;68.64;101281.75;2383374;28;47188;-82
2022/10/22 10:28:41;;;;;;;;;3.50;2.00;;;;;18.65;68.64;101272.91;2388591;28;45456;-82
2022/10/22 10:30:15;;;;;;;;;2.50;1.75;;;;;18.71;68.44;101275.22;2383958;28;46375;-81
2022/10/22 10:31:48;;;;;;;;;3.25;3.25;;;;;18.73;68.83;101281.28;2389734;28;44594;-81
2022/10/22 10:33:26;;;;;;;;;5.00;3.00;;;;;18.76;68.21;101274.94;2383943;28;46990;-81
2022/10/22 10:34:54;;;;;;;;;3.50;2.75;;;;;18.79;68.31;101274.75;2381148;28;45283;-82
2022/10/22 10:36:18;;;;;;;;;2.00;2.00;;;;;18.84;68.44;101280.63;2389382;28;45444;-82
2022/10/22 10:37:37;;;;;;;;;4.00;2.00;;;;;18.86;68.66;101281.44;2394355;28;45157;-82
2022/10/22 10:39:03;;;;;;;;;2.00;2.00;;;;;18.91;68.53;101282.94;2394648;28;45550;-82
2022/10/22 10:40:41;;;;;;;;;3.25;2.50;;;;;18.95;67.97;101281.81;2385581;28;45163;-81
2022/10/22 10:42:17;;;;;;;;;3.50;3.50;;;;;18.98;68.13;101284.28;2393576;28;46907;-82
2022/10/22 10:43:33;;;;;;;;;4.75;4.00;;;;;19.03;68.60;101286.69;2384345;28;45650;-82
2022/10/22 10:44:54;;;;;;;;;5.75;4.00;;;;;19.01;67.97;101289.44;2388163;28;45666;-78
2022/10/22 10:46:10;;;;;;;;;4.50;4.25;;;;;19.06;67.83;101287.34;2384543;28;45304;-78
2022/10/22 10:47:50;;;;;;;;;3.00;3.00;;;;;19.11;68.15;101287.91;2388456;28;46264;-78
2022/10/22 10:49:10;;;;;;;;;3.25;3.00;;;;;19.16;67.71;101284.13;2394170;28;44649;-78
2022/10/22 10:50:45;;;;;;;;;3.00;2.00;;;;;19.19;67.17;101283.97;2383842;28;48263;-78
2022/10/22 10:52:13;;;;;;;;;5.75;4.75;;;;;19.23;67.74;101288.16;2390147;28;45274;-78
2022/10/22 10:53:29;;;;;;;;;5.25;4.25;;;;;19.26;67.19;101285.28;2393843;28;45438;-79
2022/10/22 10:54:49;;;;;;;;;4.75;4.75;;;;;19.27;67.46;101292.34;2394430;28;45344;-79
2022/10/22 10:56:37;;;;;;;;;1.50;1.50;;;;;19.31;67.34;101288.53;2392160;28;45421;-79
2022/10/22 10:57:54;;;;;;;;;3.00;2.00;;;;;19.33;67.44;101283.97;2393521;28;45482;-79
2022/10/22 10:59:16;;;;;;;;;1.00;0.00;;;;;19.36;67.10;101284.75;2393206;28;46431;-79
2022/10/22 11:00:35;;;;;;;;;3.25;2.75;;;;;19.38;67.37;101280.19;2392591;28;44850;-78
2022/10/22 11:02:04;;;;;;;;;2.50;2.50;;;;;19.39;66.99;101282.75;2393924;28;45354;-78
2022/10/22 11:03:29;;;;;;;;;2.00;2.00;;;;;19.42;66.70;101284.34;2394495;28;45269;-78
2022/10/22 11:04:58;;;;;;;;;6.00;5.50;;;;;19.41;67.41;101282.66;2383909;28;48142;-77
2022/10/22 11:06:13;;;;;;;;;2.25;2.25;;;;;19.38;66.86;101285.50;2383304;28;45756;-77
2022/10/22 11:07:53;;;;;;;;;1.00;1.00;;;;;19.41;66.10;101280.00;2387999;28;46342;-78
2022/10/22 11:09:03;;;;;;;;;4.00;2.50;;;;;19.45;66.50;101284.19;2380627;28;45442;-77
2022/10/22 11:10:33;;;;;;;;;2.50;2.25;;;;;19.50;66.58;101289.22;2394489;28;46116;-77
2022/10/22 11:11:54;;;;;;;;;8.00;2.00;;;;;19.52;65.68;101287.31;2394585;28;45228;-77
2022/10/22 11:13:38;;;;;;;;;2.00;1.00;;;;;19.55;66.28;101289.78;2392124;28;48319;-77
